createdAt,value
2018-06-10T00:01:34.817Z,18.40
2018-06-10T00:04:03.584Z,18.30
2018-06-10T00:06:33.246Z,18.30
2018-06-10T00:09:01.814Z,18.30
2018-06-10T00:11:30.424Z,18.30
2018-06-10T00:13:59.045Z,18.30
2018-06-10T00:16:27.761Z,18.30
2018-06-10T00:18:57.735Z,18.30
2018-06-10T00:21:26.333Z,18.30
2018-06-10T00:23:56.653Z,18.30
2018-06-10T00:26:25.621Z,18.20
2018-06-10T00:28:59.614Z,18.30
2018-06-10T00:31:28.430Z,18.20
2018-06-10T00:33:57.740Z,18.20
2018-06-10T00:36:27.592Z,18.20
2018-06-10T00:41:25.891Z,18.10
2018-06-10T00:43:54.523Z,18.10
2018-06-10T00:46:23.160Z,18.10
2018-06-10T00:48:54.351Z,18.00
2018-06-10T00:51:22.953Z,18.10
2018-06-10T00:53:52.188Z,18.10
2018-06-10T00:56:33.425Z,18.10
2018-06-10T00:59:02.441Z,18.20
2018-06-10T01:01:34.166Z,18.20
2018-06-10T01:04:02.937Z,18.00
2018-06-10T01:06:31.560Z,18.00
2018-06-10T01:09:00.145Z,17.90
2018-06-10T01:11:28.782Z,17.90
2018-06-10T01:13:59.437Z,17.80
2018-06-10T01:16:29.108Z,17.70
2018-06-10T01:18:58.878Z,17.70
2018-06-10T01:21:27.613Z,17.70
2018-06-10T01:23:57.427Z,17.70
2018-06-10T01:26:31.960Z,17.80
2018-06-10T01:29:00.615Z,17.70
2018-06-10T01:31:30.207Z,17.50
2018-06-10T01:33:58.886Z,17.40
2018-06-10T01:36:27.894Z,17.30
2018-06-10T01:38:56.514Z,17.30
2018-06-10T01:54:23.484Z,17.30
2018-06-10T01:56:53.394Z,17.30
2018-06-10T01:59:24.172Z,17.20
2018-06-10T02:01:53.472Z,17.20
2018-06-10T02:04:22.459Z,17.20
2018-06-10T02:06:52.137Z,17.20
2018-06-10T02:09:20.895Z,17.10
2018-06-10T02:11:50.323Z,17.20
2018-06-10T02:14:20.063Z,17.10
2018-06-10T02:16:48.696Z,17.00
2018-06-10T02:19:20.430Z,16.90
2018-06-10T02:21:51.282Z,17.00
2018-06-10T02:24:20.621Z,17.00
2018-06-10T02:26:49.817Z,17.00
2018-06-10T02:42:18.889Z,17.00
2018-06-10T02:44:47.757Z,17.00
2018-06-10T02:47:17.779Z,16.90
2018-06-10T02:49:46.485Z,16.80
2018-06-10T02:52:15.176Z,16.80
2018-06-10T02:54:43.918Z,16.80
2018-06-10T02:57:13.838Z,16.90
2018-06-10T02:59:42.431Z,16.80
2018-06-10T03:02:12.057Z,16.90
2018-06-10T03:04:40.957Z,16.90
2018-06-10T03:07:10.769Z,16.90
2018-06-10T03:09:41.369Z,16.80
2018-06-10T03:12:11.924Z,16.80
2018-06-10T03:14:42.224Z,16.80
2018-06-10T03:17:11.412Z,16.70
2018-06-10T03:19:42.106Z,16.80
2018-06-10T03:22:11.856Z,16.70
2018-06-10T03:24:41.044Z,16.70
2018-06-10T03:27:10.291Z,16.70
2018-06-10T03:29:38.883Z,16.70
2018-06-10T03:32:10.972Z,16.70
2018-06-10T03:34:39.581Z,16.70
2018-06-10T03:37:09.554Z,16.70
2018-06-10T03:52:36.599Z,16.70
2018-06-10T03:55:05.222Z,16.70
2018-06-10T03:57:37.090Z,16.80
2018-06-10T04:00:05.823Z,16.80
2018-06-10T04:02:34.461Z,16.80
2018-06-10T04:05:03.216Z,16.90
2018-06-10T04:07:32.923Z,17.00
2018-06-10T04:10:01.559Z,17.10
2018-06-10T04:12:30.844Z,17.10
2018-06-10T04:14:59.865Z,17.20
2018-06-10T04:17:34.937Z,17.30
2018-06-10T04:20:03.602Z,17.50
2018-06-10T04:22:32.611Z,17.80
2018-06-10T04:25:02.361Z,18.40
2018-06-10T04:27:31.501Z,19.00
2018-06-10T04:30:00.208Z,19.40
2018-06-10T04:32:28.891Z,19.80
2018-06-10T04:34:57.489Z,20.20
2018-06-10T04:37:26.133Z,20.70
2018-06-10T04:39:56.810Z,21.00
2018-06-10T04:42:25.502Z,21.50
2018-06-10T04:44:54.638Z,21.60
2018-06-10T04:47:23.400Z,21.80
2018-06-10T04:49:52.012Z,22.00
2018-06-10T04:52:21.618Z,22.40
2018-06-10T04:54:50.235Z,22.50
2018-06-10T04:57:18.854Z,22.50
2018-06-10T04:59:47.535Z,22.80
2018-06-10T05:02:16.225Z,22.80
2018-06-10T05:04:45.976Z,22.80
2018-06-10T05:07:14.717Z,23.10
2018-06-10T05:09:43.481Z,23.00
2018-06-10T05:12:14.138Z,23.40
2018-06-10T05:14:44.878Z,23.80
2018-06-10T05:17:13.579Z,23.40
2018-06-10T05:19:42.312Z,23.90
2018-06-10T05:22:13.146Z,23.90
2018-06-10T05:24:41.742Z,24.30
2018-06-10T05:27:10.455Z,24.40
2018-06-10T05:29:41.204Z,24.50
2018-06-10T05:32:12.336Z,24.70
2018-06-10T05:34:41.130Z,24.60
2018-06-10T05:37:10.835Z,24.20
2018-06-10T05:52:40.721Z,23.70
2018-06-10T05:55:10.517Z,23.00
2018-06-10T05:57:41.133Z,21.20
2018-06-10T06:00:10.862Z,21.60
2018-06-10T06:02:39.496Z,22.10
2018-06-10T06:05:09.436Z,22.30
2018-06-10T06:07:38.026Z,22.00
2018-06-10T06:10:06.844Z,21.70
2018-06-10T06:12:36.888Z,21.70
2018-06-10T06:15:06.551Z,21.40
2018-06-10T06:17:35.175Z,21.00
2018-06-10T06:20:03.994Z,21.00
2018-06-10T06:22:32.689Z,20.90
2018-06-10T06:25:01.302Z,20.80
2018-06-10T06:27:30.575Z,20.90
2018-06-10T06:29:59.301Z,21.00
2018-06-10T06:32:28.904Z,21.20
2018-06-10T06:34:57.532Z,21.40
2018-06-10T06:37:27.482Z,21.80
2018-06-10T06:39:56.145Z,22.20
2018-06-10T06:42:25.911Z,23.00
2018-06-10T06:44:54.688Z,23.50
2018-06-10T06:47:23.269Z,23.90
2018-06-10T06:49:53.168Z,23.70
2018-06-10T06:54:50.045Z,24.00
2018-06-10T06:57:18.734Z,23.70
2018-06-10T06:59:47.373Z,23.60
2018-06-10T07:02:17.115Z,23.50
2018-06-10T07:04:45.825Z,23.60
2018-06-10T07:07:14.519Z,24.20
2018-06-10T07:12:12.526Z,23.50
2018-06-10T07:14:41.187Z,23.20
2018-06-10T07:17:10.799Z,23.50
2018-06-10T07:19:39.406Z,24.10
2018-06-10T07:22:09.161Z,23.80
2018-06-10T07:24:37.998Z,23.40
2018-06-10T07:27:06.720Z,23.70
2018-06-10T07:42:35.791Z,23.50
2018-06-10T07:45:05.545Z,24.00
2018-06-10T07:47:34.244Z,23.60
2018-06-10T07:50:03.088Z,23.60
2018-06-10T07:52:31.852Z,23.90
2018-06-10T07:55:00.558Z,23.60
2018-06-10T07:57:29.158Z,23.10
2018-06-10T07:59:58.324Z,23.10
2018-06-10T08:02:26.976Z,23.40
2018-06-10T08:04:55.600Z,23.40
2018-06-10T08:20:28.560Z,23.40
2018-06-10T08:22:57.180Z,23.40
2018-06-10T08:25:25.753Z,22.60
2018-06-10T08:27:54.962Z,23.00
2018-06-10T08:30:23.760Z,23.00
2018-06-10T08:32:52.397Z,22.80
2018-06-10T08:35:23.435Z,22.50
2018-06-10T08:37:52.023Z,22.60
2018-06-10T08:40:22.677Z,23.00
2018-06-10T08:42:51.865Z,23.10
2018-06-10T08:45:22.599Z,23.70
2018-06-10T08:47:51.231Z,23.70
2018-06-10T08:50:19.835Z,23.60
2018-06-10T08:52:48.653Z,23.30
2018-06-10T08:55:20.026Z,23.50
2018-06-10T08:57:49.248Z,23.70
2018-06-10T09:00:18.607Z,24.10
2018-06-10T09:02:47.313Z,23.90
2018-06-10T09:05:15.937Z,23.70
2018-06-10T09:07:44.595Z,23.60
2018-06-10T09:23:17.503Z,23.40
2018-06-10T09:25:46.090Z,23.20
2018-06-10T09:28:14.739Z,23.80
2018-06-10T09:30:44.498Z,23.80
2018-06-10T09:33:13.094Z,24.10
2018-06-10T09:35:42.983Z,24.40
2018-06-10T09:38:12.598Z,24.50
2018-06-10T09:40:42.203Z,24.30
2018-06-10T09:43:13.151Z,24.30
2018-06-10T09:45:41.735Z,24.60
2018-06-10T09:48:11.839Z,24.80
2018-06-10T09:50:40.569Z,24.70
2018-06-10T09:53:09.313Z,24.50
2018-06-10T09:55:38.184Z,24.80
2018-06-10T09:58:06.728Z,25.10
2018-06-10T10:00:35.438Z,25.10
2018-06-10T10:03:05.054Z,25.00
2018-06-10T10:05:33.728Z,24.90
2018-06-10T10:08:02.313Z,24.50
2018-06-10T10:10:31.909Z,24.40
2018-06-10T10:13:00.790Z,23.80
2018-06-10T10:15:29.387Z,24.20
2018-06-10T10:17:58.854Z,24.20
2018-06-10T10:20:28.590Z,23.50
2018-06-10T10:22:57.219Z,24.20
2018-06-10T10:25:25.856Z,24.70
2018-06-10T10:27:56.166Z,24.90
2018-06-10T10:30:24.767Z,25.30
2018-06-10T10:32:55.480Z,25.30
2018-06-10T10:35:25.348Z,25.40
2018-06-10T10:37:55.015Z,25.60
2018-06-10T10:53:28.898Z,25.00
2018-06-10T10:55:57.518Z,25.30
2018-06-10T11:11:30.335Z,24.40
2018-06-10T11:13:58.997Z,24.70
2018-06-10T11:16:27.761Z,24.60
2018-06-10T11:18:56.381Z,24.20
2018-06-10T11:21:26.014Z,24.20
2018-06-10T11:23:55.276Z,24.80
2018-06-10T11:26:24.184Z,25.10
2018-06-10T11:31:21.115Z,25.70
2018-06-10T11:33:50.506Z,26.00
2018-06-10T11:36:20.158Z,26.20
2018-06-10T11:38:48.809Z,26.50
2018-06-10T11:41:17.427Z,26.60
2018-06-10T11:43:46.109Z,26.90
2018-06-10T11:46:14.791Z,26.70
2018-06-10T11:48:44.585Z,26.90
2018-06-10T11:51:15.148Z,26.60
2018-06-10T11:53:43.724Z,26.70
2018-06-10T11:56:13.658Z,26.70
2018-06-10T11:58:42.275Z,26.30
2018-06-10T12:03:42.092Z,25.70
2018-06-10T12:19:09.640Z,25.70
2018-06-10T12:21:39.251Z,26.00
2018-06-10T12:24:07.815Z,26.80
2018-06-10T12:26:36.463Z,26.90
2018-06-10T12:29:05.297Z,26.50
2018-06-10T12:31:33.870Z,26.40
2018-06-10T12:34:02.544Z,26.30
2018-06-10T12:36:31.128Z,26.10
2018-06-10T12:39:03.471Z,25.80
2018-06-10T12:41:32.176Z,25.60
2018-06-10T12:44:02.134Z,25.90
2018-06-10T12:46:32.836Z,26.00
2018-06-10T12:49:03.502Z,26.20
2018-06-10T12:51:34.279Z,26.20
2018-06-10T12:54:02.880Z,25.40
2018-06-10T12:56:34.388Z,25.40
2018-06-10T12:59:03.097Z,25.40
2018-06-10T13:01:31.731Z,25.80
2018-06-10T13:04:00.402Z,26.00
2018-06-10T13:06:29.518Z,26.10
2018-06-10T13:21:57.639Z,26.50
2018-06-10T13:24:27.960Z,26.60
2018-06-10T13:26:56.602Z,26.50
2018-06-10T13:29:25.884Z,26.60
2018-06-10T13:31:54.548Z,26.90
2018-06-10T13:34:23.234Z,27.00
2018-06-10T13:36:52.707Z,27.30
2018-06-10T13:39:21.611Z,27.20
2018-06-10T13:41:50.201Z,26.80
2018-06-10T13:44:18.859Z,26.70
2018-06-10T13:46:47.548Z,26.60
2018-06-10T13:49:16.515Z,26.70
2018-06-10T13:51:46.286Z,26.90
2018-06-10T13:54:16.607Z,26.60
2018-06-10T13:56:45.235Z,26.60
2018-06-10T13:59:14.040Z,26.30
2018-06-10T14:01:42.695Z,26.40
2018-06-10T14:04:13.629Z,26.50
2018-06-10T14:06:42.324Z,26.40
2018-06-10T14:09:10.946Z,26.20
2018-06-10T14:11:39.607Z,26.10
2018-06-10T14:14:11.284Z,25.80
2018-06-10T14:16:40.093Z,25.90
2018-06-10T14:19:08.765Z,25.90
2018-06-10T14:21:38.608Z,26.00
2018-06-10T14:24:08.287Z,26.40
2018-06-10T14:26:37.893Z,26.50
2018-06-10T14:29:12.010Z,26.40
2018-06-10T14:44:40.215Z,26.60
2018-06-10T14:47:09.854Z,27.00
2018-06-10T14:49:38.596Z,27.60
2018-06-10T14:52:07.253Z,27.10
2018-06-10T14:54:36.998Z,26.60
2018-06-10T14:57:07.126Z,26.40
2018-06-10T14:59:35.783Z,26.10
2018-06-10T15:02:05.473Z,25.90
2018-06-10T15:04:34.077Z,25.90
2018-06-10T15:07:03.587Z,26.00
2018-06-10T15:09:32.178Z,26.00
2018-06-10T15:12:00.814Z,26.10
2018-06-10T15:14:31.085Z,26.30
2018-06-10T15:17:00.021Z,26.40
2018-06-10T15:19:29.595Z,26.50
2018-06-10T15:21:59.331Z,26.60
2018-06-10T15:24:28.733Z,26.60
2018-06-10T15:26:57.713Z,26.70
2018-06-10T15:29:27.147Z,27.00
2018-06-10T15:31:56.446Z,27.20
2018-06-10T15:34:25.074Z,27.20
2018-06-10T15:36:53.783Z,27.30
2018-06-10T15:39:23.406Z,27.30
2018-06-10T15:41:52.509Z,27.30
2018-06-10T15:44:21.266Z,27.40
2018-06-10T15:46:49.947Z,27.40
2018-06-10T15:49:19.596Z,27.30
2018-06-10T15:51:48.302Z,27.10
2018-06-10T15:54:16.924Z,27.00
2018-06-10T15:56:45.606Z,27.10
2018-06-10T15:59:14.863Z,27.40
2018-06-10T16:01:45.179Z,27.50
2018-06-10T16:04:16.215Z,28.00
2018-06-10T16:06:44.814Z,28.50
2018-06-10T16:09:14.571Z,28.60
2018-06-10T16:24:42.565Z,28.90
2018-06-10T16:27:13.168Z,28.60
2018-06-10T16:29:42.928Z,27.50
2018-06-10T16:32:12.839Z,27.30
2018-06-10T16:34:43.458Z,27.30
2018-06-10T16:37:13.256Z,27.50
2018-06-10T16:39:41.925Z,27.40
2018-06-10T16:42:13.123Z,27.30
2018-06-10T16:44:42.157Z,27.30
2018-06-10T16:47:10.833Z,27.50
2018-06-10T16:49:39.466Z,27.80
2018-06-10T16:52:09.525Z,27.80
2018-06-10T16:54:39.173Z,27.90
2018-06-10T16:57:08.549Z,27.40
2018-06-10T16:59:39.344Z,27.20
2018-06-10T17:02:09.762Z,27.50
2018-06-10T17:17:38.594Z,27.50
2018-06-10T17:20:09.386Z,27.70
2018-06-10T17:22:41.272Z,26.40
2018-06-10T17:25:11.490Z,26.00
2018-06-10T17:27:40.122Z,26.00
2018-06-10T17:30:09.211Z,26.20
2018-06-10T17:32:38.384Z,25.90
2018-06-10T17:35:07.691Z,25.60
2018-06-10T17:37:38.385Z,25.40
2018-06-10T17:40:07.830Z,25.50
2018-06-10T17:42:39.159Z,25.80
2018-06-10T17:45:10.695Z,26.00
2018-06-10T17:47:40.671Z,26.30
2018-06-10T17:50:10.432Z,26.70
2018-06-10T17:52:40.159Z,26.60
2018-06-10T18:08:14.567Z,26.60
2018-06-10T18:10:43.203Z,26.30
2018-06-10T18:13:11.866Z,24.50
2018-06-10T18:15:42.493Z,24.80
2018-06-10T18:18:12.223Z,25.10
2018-06-10T18:20:41.869Z,25.20
2018-06-10T18:23:10.725Z,25.30
2018-06-10T18:25:43.092Z,25.60
2018-06-10T18:28:13.216Z,26.00
2018-06-10T18:30:44.131Z,26.00
2018-06-10T18:33:15.293Z,25.80
2018-06-10T18:35:46.617Z,25.50
2018-06-10T18:38:15.318Z,25.40
2018-06-10T18:40:44.305Z,25.40
2018-06-10T18:43:13.207Z,25.30
2018-06-10T18:45:41.807Z,25.10
2018-06-10T18:48:12.351Z,24.90
2018-06-10T18:50:41.030Z,24.60
2018-06-10T18:53:11.609Z,24.40
2018-06-10T18:55:41.578Z,24.10
2018-06-10T18:58:14.066Z,23.90
2018-06-10T19:00:42.735Z,23.70
2018-06-10T19:03:14.451Z,23.50
2018-06-10T19:05:46.510Z,23.40
2018-06-10T19:08:16.158Z,23.30
2018-06-10T19:10:46.818Z,23.10
2018-06-10T19:13:16.542Z,23.00
2018-06-10T19:15:48.219Z,22.90
2018-06-10T19:18:18.060Z,22.80
2018-06-10T19:23:15.951Z,22.60
2018-06-10T19:25:45.693Z,22.40
2018-06-10T19:28:16.352Z,22.40
2018-06-10T19:30:47.082Z,22.40
2018-06-10T19:33:15.714Z,22.40
2018-06-10T19:35:44.419Z,22.30
2018-06-10T19:40:43.413Z,22.10
2018-06-10T19:43:14.528Z,21.90
2018-06-10T19:45:44.484Z,21.80
2018-06-10T19:48:15.106Z,21.90
2018-06-10T19:50:45.657Z,22.00
2018-06-10T19:53:17.668Z,21.90
2018-06-10T19:55:46.797Z,21.90
2018-06-10T19:58:17.165Z,21.90
2018-06-10T20:00:46.094Z,21.90
2018-06-10T20:03:15.802Z,21.90
2018-06-10T20:05:44.538Z,21.80
2018-06-10T20:21:13.547Z,21.70
2018-06-10T20:23:43.633Z,21.60
2018-06-10T20:26:14.531Z,21.40
2018-06-10T20:28:48.537Z,21.50
2018-06-10T20:31:18.224Z,21.60
2018-06-10T20:46:45.623Z,21.60
2018-06-10T20:49:14.289Z,21.50
2018-06-10T20:51:51.342Z,21.50
2018-06-10T20:54:20.353Z,21.50
2018-06-10T21:09:52.581Z,21.50
2018-06-10T21:12:21.250Z,21.50
2018-06-10T21:14:50.995Z,21.50
2018-06-10T21:30:18.073Z,21.50
2018-06-10T21:32:48.853Z,21.40
2018-06-10T21:35:17.478Z,21.60
2018-06-10T21:37:49.156Z,21.60
2018-06-10T21:40:19.958Z,21.60
2018-06-10T21:42:50.964Z,21.60
2018-06-10T21:45:20.338Z,21.60
2018-06-10T21:47:57.763Z,21.60
2018-06-10T22:03:25.956Z,21.60
2018-06-10T22:05:54.628Z,21.50
2018-06-10T22:08:23.317Z,21.40
2018-06-10T22:10:54.099Z,21.40
2018-06-10T22:13:22.744Z,21.40
2018-06-10T22:15:52.702Z,21.50
2018-06-10T22:31:22.724Z,21.40
2018-06-10T22:33:52.515Z,21.20
2018-06-10T22:36:25.311Z,21.30
2018-06-10T22:38:54.960Z,21.30
2018-06-10T22:41:25.758Z,21.20
2018-06-10T22:43:55.850Z,21.20
2018-06-10T22:46:28.149Z,21.30
2018-06-10T23:01:55.908Z,21.30
2018-06-10T23:04:24.652Z,21.20
2018-06-10T23:06:53.498Z,20.30
2018-06-10T23:09:22.301Z,20.30
2018-06-10T23:11:52.811Z,20.30
2018-06-10T23:14:23.894Z,20.40
2018-06-10T23:16:52.689Z,20.30
2018-06-10T23:19:22.871Z,20.30
2018-06-10T23:21:51.639Z,20.30
2018-06-10T23:24:21.782Z,20.30
2018-06-10T23:26:52.013Z,20.30
2018-06-10T23:42:21.090Z,20.30
2018-06-10T23:44:52.208Z,20.30
2018-06-10T23:47:24.340Z,20.10
2018-06-10T23:49:55.502Z,20.10
2018-06-10T23:52:24.188Z,20.00
2018-06-10T23:54:54.146Z,20.10
2018-06-10T23:57:22.836Z,20.00
2018-06-10T23:59:52.846Z,19.90
